createdAt,value
2018-02-07T00:00:28.071Z,32.60
2018-02-07T00:01:28.061Z,31.30
2018-02-07T00:02:28.044Z,30.90
2018-02-07T00:03:28.037Z,32.00
2018-02-07T00:04:28.024Z,32.00
2018-02-07T00:05:28.016Z,32.10
2018-02-07T00:06:28.006Z,32.80
2018-02-07T00:07:27.986Z,32.50
2018-02-07T00:08:27.974Z,31.80
2018-02-07T00:09:27.972Z,32.90
2018-02-07T00:10:27.955Z,33.10
2018-02-07T00:11:27.944Z,33.10
2018-02-07T00:12:27.932Z,32.80
2018-02-07T00:13:27.918Z,33.20
2018-02-07T00:14:27.909Z,32.40
2018-02-07T00:15:27.901Z,35.10
2018-02-07T00:16:27.884Z,34.10
2018-02-07T00:17:27.927Z,33.10
2018-02-07T00:18:28.108Z,33.50
2018-02-07T00:19:27.848Z,34.10
2018-02-07T00:20:27.831Z,33.40
2018-02-07T00:21:27.823Z,33.30
2018-02-07T00:22:27.812Z,33.80
2018-02-07T00:23:27.796Z,32.70
2018-02-07T00:24:27.789Z,32.80
2018-02-07T00:25:27.777Z,33.80
2018-02-07T00:26:27.766Z,35.40
2018-02-07T00:27:27.754Z,34.40
2018-02-07T00:28:27.743Z,34.70
2018-02-07T00:29:27.724Z,33.90
2018-02-07T00:30:27.712Z,33.80
2018-02-07T00:31:27.707Z,34.10
2018-02-07T00:32:27.698Z,34.30
2018-02-07T00:33:27.677Z,33.70
2018-02-07T00:34:27.668Z,34.00
2018-02-07T00:35:27.652Z,35.20
2018-02-07T00:36:27.643Z,34.30
2018-02-07T00:37:27.631Z,36.10
2018-02-07T00:38:27.636Z,33.80
2018-02-07T00:39:27.604Z,33.40
2018-02-07T00:40:27.593Z,33.40
2018-02-07T00:41:27.584Z,36.50
2018-02-07T00:42:27.581Z,34.10
2018-02-07T00:43:27.577Z,34.90
2018-02-07T00:44:27.547Z,33.90
2018-02-07T00:45:27.533Z,34.60
2018-02-07T00:46:27.520Z,35.30
2018-02-07T00:47:27.510Z,34.70
2018-02-07T00:48:27.548Z,34.10
2018-02-07T00:49:27.535Z,34.70
2018-02-07T00:50:27.474Z,34.50
2018-02-07T00:51:27.461Z,35.50
2018-02-07T00:52:27.451Z,34.70
2018-02-07T00:53:27.439Z,35.60
2018-02-07T00:54:27.428Z,35.80
2018-02-07T00:55:27.414Z,36.40
2018-02-07T00:56:27.396Z,35.50
2018-02-07T00:57:27.395Z,35.60
2018-02-07T00:58:27.379Z,36.60
2018-02-07T00:59:27.365Z,35.10
2018-02-07T01:00:27.413Z,34.70
2018-02-07T01:01:27.337Z,36.10
2018-02-07T01:02:27.324Z,35.90
2018-02-07T01:03:27.315Z,36.10
2018-02-07T01:04:27.312Z,36.90
2018-02-07T01:05:27.291Z,35.20
2018-02-07T01:06:27.276Z,35.60
2018-02-07T01:07:27.264Z,35.60
2018-02-07T01:08:27.248Z,35.10
2018-02-07T01:09:27.244Z,35.30
2018-02-07T01:10:27.229Z,36.40
2018-02-07T01:11:27.213Z,36.10
2018-02-07T01:12:27.203Z,34.50
2018-02-07T01:13:27.192Z,35.40
2018-02-07T01:14:27.182Z,35.90
2018-02-07T01:15:27.165Z,35.00
2018-02-07T01:16:27.153Z,36.10
2018-02-07T01:17:27.137Z,35.30
2018-02-07T01:18:27.126Z,35.00
2018-02-07T01:19:27.117Z,35.20
2018-02-07T01:20:27.111Z,34.30
2018-02-07T01:21:27.088Z,34.90
2018-02-07T01:22:27.076Z,34.80
2018-02-07T01:23:27.065Z,34.80
2018-02-07T01:24:27.053Z,35.30
2018-02-07T01:25:27.049Z,35.90
2018-02-07T01:26:27.032Z,34.90
2018-02-07T01:27:27.012Z,35.20
2018-02-07T01:28:27.007Z,35.90
2018-02-07T01:29:26.993Z,35.60
2018-02-07T01:30:26.988Z,34.30
2018-02-07T01:31:26.974Z,35.30
2018-02-07T01:32:27.047Z,35.70
2018-02-07T01:33:26.945Z,35.60
2018-02-07T01:34:26.929Z,35.50
2018-02-07T01:35:26.919Z,35.60
2018-02-07T01:36:26.904Z,35.30
2018-02-07T01:37:26.898Z,36.40
2018-02-07T01:38:26.886Z,35.20
2018-02-07T01:39:26.870Z,35.00
2018-02-07T01:40:26.863Z,36.90
2018-02-07T01:41:26.841Z,35.40
2018-02-07T01:42:26.830Z,36.00
2018-02-07T01:43:26.821Z,35.30
2018-02-07T01:44:26.858Z,34.70
2018-02-07T01:45:26.797Z,35.80
2018-02-07T01:46:26.782Z,35.70
2018-02-07T01:47:26.765Z,35.60
2018-02-07T01:48:26.753Z,34.70
2018-02-07T01:49:26.747Z,35.30
2018-02-07T01:50:26.740Z,35.10
2018-02-07T01:51:26.721Z,34.70
2018-02-07T01:52:26.711Z,36.40
2018-02-07T01:53:26.711Z,35.50
2018-02-07T01:54:26.685Z,35.30
2018-02-07T01:55:26.682Z,35.30
2018-02-07T01:56:26.664Z,35.40
2018-02-07T01:57:26.654Z,35.60
2018-02-07T01:58:26.635Z,36.40
2018-02-07T01:59:26.622Z,35.70
2018-02-07T02:00:26.611Z,36.30
2018-02-07T02:01:26.594Z,35.60
2018-02-07T02:02:26.581Z,34.80
2018-02-07T02:03:26.572Z,34.80
2018-02-07T02:04:26.558Z,34.20
2018-02-07T02:05:26.550Z,36.60
2018-02-07T02:06:26.537Z,36.20
2018-02-07T02:07:26.521Z,35.50
2018-02-07T02:08:26.511Z,35.20
2018-02-07T02:09:26.502Z,34.80
2018-02-07T02:10:26.488Z,36.00
2018-02-07T02:11:26.479Z,36.20
2018-02-07T02:12:26.762Z,36.30
2018-02-07T02:13:26.449Z,35.70
2018-02-07T02:14:26.435Z,35.90
2018-02-07T02:15:26.424Z,35.90
2018-02-07T02:16:26.413Z,36.10
2018-02-07T02:17:26.398Z,35.30
2018-02-07T02:18:26.689Z,35.90
2018-02-07T02:19:26.375Z,34.10
2018-02-07T02:20:26.361Z,35.40
2018-02-07T02:21:26.349Z,35.30
2018-02-07T02:22:26.337Z,36.60
2018-02-07T02:23:26.318Z,36.00
2018-02-07T02:24:26.612Z,34.50
2018-02-07T02:25:26.299Z,34.60
2018-02-07T02:26:26.291Z,35.80
2018-02-07T02:27:26.276Z,34.90
2018-02-07T02:28:26.268Z,36.30
2018-02-07T02:29:26.255Z,35.80
2018-02-07T02:30:26.736Z,33.90
2018-02-07T02:31:26.227Z,34.00
2018-02-07T02:32:26.215Z,36.30
2018-02-07T02:33:26.195Z,34.90
2018-02-07T02:34:26.183Z,36.40
2018-02-07T02:35:26.172Z,36.10
2018-02-07T02:36:26.459Z,34.90
2018-02-07T02:37:26.151Z,35.70
2018-02-07T02:38:26.140Z,35.10
2018-02-07T02:39:26.129Z,35.10
2018-02-07T02:40:26.113Z,36.30
2018-02-07T02:41:26.107Z,37.50
2018-02-07T02:42:26.392Z,35.70
2018-02-07T02:43:26.079Z,35.30
2018-02-07T02:44:26.070Z,36.20
2018-02-07T02:45:26.049Z,36.40
2018-02-07T02:46:26.037Z,34.80
2018-02-07T02:47:26.038Z,38.20
2018-02-07T02:48:26.564Z,35.80
2018-02-07T02:49:25.998Z,37.40
2018-02-07T02:50:25.985Z,37.60
2018-02-07T02:51:25.975Z,35.90
2018-02-07T02:52:25.963Z,35.70
2018-02-07T02:53:25.958Z,34.40
2018-02-07T02:54:26.246Z,37.20
2018-02-07T02:55:25.925Z,36.20
2018-02-07T02:56:25.920Z,36.70
2018-02-07T02:57:25.910Z,34.60
2018-02-07T02:58:25.895Z,38.30
2018-02-07T02:59:25.877Z,36.50
2018-02-07T03:00:26.166Z,35.30
2018-02-07T03:01:25.856Z,38.00
2018-02-07T03:02:25.841Z,35.20
2018-02-07T03:03:25.830Z,36.70
2018-02-07T03:04:25.822Z,37.50
2018-02-07T03:05:25.804Z,36.90
2018-02-07T03:06:26.366Z,36.10
2018-02-07T03:07:25.790Z,36.60
2018-02-07T03:08:25.766Z,37.00
2018-02-07T03:09:25.753Z,38.40
2018-02-07T03:10:25.746Z,37.10
2018-02-07T03:11:25.739Z,36.10
2018-02-07T03:12:26.013Z,36.70
2018-02-07T03:13:25.708Z,36.90
2018-02-07T03:14:25.692Z,35.60
2018-02-07T03:15:25.681Z,36.80
2018-02-07T03:16:25.670Z,39.20
2018-02-07T03:17:25.654Z,38.00
2018-02-07T03:18:25.942Z,37.50
2018-02-07T03:19:25.633Z,39.50
2018-02-07T03:20:25.616Z,36.50
2018-02-07T03:21:25.604Z,36.00
2018-02-07T03:22:25.588Z,36.80
2018-02-07T03:23:25.580Z,35.80
2018-02-07T03:24:25.865Z,38.50
2018-02-07T03:25:25.557Z,36.50
2018-02-07T03:26:25.546Z,37.90
2018-02-07T03:27:25.528Z,38.50
2018-02-07T03:28:25.515Z,37.30
2018-02-07T03:29:25.519Z,36.40
2018-02-07T03:30:25.794Z,37.80
2018-02-07T03:31:25.480Z,37.40
2018-02-07T03:32:25.467Z,36.00
2018-02-07T03:33:25.450Z,36.70
2018-02-07T03:34:25.444Z,36.70
2018-02-07T03:35:25.435Z,37.10
2018-02-07T03:36:25.719Z,37.20
2018-02-07T03:37:25.409Z,38.50
2018-02-07T03:38:25.391Z,37.80
2018-02-07T03:39:25.381Z,36.70
2018-02-07T03:40:25.362Z,35.90
2018-02-07T03:41:25.356Z,37.20
2018-02-07T03:42:25.644Z,38.00
2018-02-07T03:43:25.328Z,37.60
2018-02-07T03:44:25.318Z,37.90
2018-02-07T03:45:25.300Z,39.40
2018-02-07T03:46:25.292Z,36.20
2018-02-07T03:47:25.278Z,36.60
2018-02-07T03:48:25.570Z,38.10
2018-02-07T03:49:25.261Z,37.80
2018-02-07T03:50:25.247Z,38.10
2018-02-07T03:51:25.230Z,37.10
2018-02-07T03:52:25.248Z,38.60
2018-02-07T03:53:25.204Z,36.80
2018-02-07T03:54:25.546Z,37.40
2018-02-07T03:55:25.179Z,37.30
2018-02-07T03:56:25.170Z,37.20
2018-02-07T03:57:25.153Z,39.40
2018-02-07T03:58:25.138Z,37.80
2018-02-07T03:59:25.129Z,38.70
2018-02-07T04:00:25.516Z,37.40
2018-02-07T04:01:25.109Z,41.70
2018-02-07T04:02:25.088Z,38.70
2018-02-07T04:03:25.077Z,37.80
2018-02-07T04:04:25.059Z,37.00
2018-02-07T04:05:25.051Z,37.30
2018-02-07T04:06:25.339Z,37.60
2018-02-07T04:07:25.022Z,37.40
2018-02-07T04:08:25.010Z,38.50
2018-02-07T04:09:25.003Z,38.90
2018-02-07T04:10:24.994Z,37.20
2018-02-07T04:11:24.974Z,36.60
2018-02-07T04:12:25.265Z,37.50
2018-02-07T04:13:24.950Z,36.30
2018-02-07T04:14:24.936Z,37.70
2018-02-07T04:15:24.928Z,36.70
2018-02-07T04:16:24.912Z,39.20
2018-02-07T04:17:24.897Z,37.70
2018-02-07T04:18:25.088Z,38.20
2018-02-07T04:19:24.871Z,37.40
2018-02-07T04:20:24.870Z,35.70
2018-02-07T04:21:24.850Z,37.20
2018-02-07T04:22:24.836Z,37.60
2018-02-07T04:23:24.818Z,37.10
2018-02-07T04:24:24.805Z,39.10
2018-02-07T04:25:24.811Z,38.60
2018-02-07T04:26:24.853Z,38.40
2018-02-07T04:27:24.772Z,38.50
2018-02-07T04:28:24.762Z,38.50
2018-02-07T04:29:24.743Z,37.50
2018-02-07T04:30:24.732Z,38.60
2018-02-07T04:31:24.722Z,35.80
2018-02-07T04:32:24.710Z,39.50
2018-02-07T04:33:24.692Z,40.40
2018-02-07T04:34:24.683Z,39.60
2018-02-07T04:35:24.667Z,37.20
2018-02-07T04:36:24.652Z,37.00
2018-02-07T04:37:24.646Z,36.70
2018-02-07T04:38:24.639Z,36.30
2018-02-07T04:39:24.615Z,37.30
2018-02-07T04:40:24.604Z,37.40
2018-02-07T04:41:24.595Z,36.90
2018-02-07T04:42:24.581Z,36.20
2018-02-07T04:43:24.569Z,38.20
2018-02-07T04:44:24.558Z,37.60
2018-02-07T04:45:24.540Z,36.20
2018-02-07T04:46:24.523Z,38.70
2018-02-07T04:47:24.520Z,36.80
2018-02-07T04:48:24.505Z,37.70
2018-02-07T04:49:24.485Z,37.20
2018-02-07T04:50:24.474Z,37.40
2018-02-07T04:51:24.511Z,37.10
2018-02-07T04:52:24.445Z,37.30
2018-02-07T04:53:24.440Z,37.00
2018-02-07T04:54:24.429Z,37.10
2018-02-07T04:55:24.406Z,36.60
2018-02-07T04:56:24.395Z,38.60
2018-02-07T04:57:24.385Z,36.10
2018-02-07T04:58:24.373Z,36.30
2018-02-07T04:59:24.361Z,36.60
2018-02-07T05:00:24.343Z,38.40
2018-02-07T05:01:24.328Z,35.40
2018-02-07T05:02:24.313Z,35.80
2018-02-07T05:03:24.308Z,39.80
2018-02-07T05:04:24.297Z,38.50
2018-02-07T05:05:24.278Z,37.10
2018-02-07T05:06:24.268Z,37.00
2018-02-07T05:07:24.253Z,36.70
2018-02-07T05:08:24.236Z,39.70
2018-02-07T05:09:24.229Z,35.80
2018-02-07T05:10:24.215Z,36.70
2018-02-07T05:11:24.196Z,36.70
2018-02-07T05:12:24.182Z,38.30
2018-02-07T05:13:24.172Z,37.30
2018-02-07T05:14:24.160Z,36.30
2018-02-07T05:15:24.148Z,38.50
2018-02-07T05:16:24.136Z,37.80
2018-02-07T05:17:24.120Z,38.00
2018-02-07T05:18:24.105Z,36.30
2018-02-07T05:19:24.097Z,36.70
2018-02-07T05:20:24.087Z,37.60
2018-02-07T05:21:24.066Z,37.80
2018-02-07T05:22:24.053Z,37.20
2018-02-07T05:23:24.107Z,37.00
2018-02-07T05:24:24.027Z,38.40
2018-02-07T05:25:24.021Z,38.00
2018-02-07T05:26:24.002Z,35.00
2018-02-07T05:27:23.985Z,39.40
2018-02-07T05:28:23.976Z,35.60
2018-02-07T05:29:23.963Z,38.20
2018-02-07T05:30:23.951Z,37.90
2018-02-07T05:31:23.943Z,39.00
2018-02-07T05:32:23.921Z,38.20
2018-02-07T05:33:23.910Z,37.80
2018-02-07T05:34:23.894Z,38.80
2018-02-07T05:35:23.891Z,37.50
2018-02-07T05:36:23.869Z,36.20
2018-02-07T05:37:23.850Z,35.70
2018-02-07T05:38:23.838Z,41.10
2018-02-07T05:39:23.827Z,38.60
2018-02-07T05:40:23.812Z,36.10
2018-02-07T05:41:23.805Z,36.80
2018-02-07T05:42:23.789Z,37.40
2018-02-07T05:43:23.779Z,36.80
2018-02-07T05:44:23.769Z,40.30
2018-02-07T05:45:23.753Z,36.50
2018-02-07T05:46:23.735Z,37.40
2018-02-07T05:47:23.724Z,37.20
2018-02-07T05:48:23.709Z,39.00
2018-02-07T05:49:23.694Z,38.30
2018-02-07T05:50:23.678Z,39.20
2018-02-07T05:51:23.664Z,37.20
2018-02-07T05:52:23.652Z,39.50
2018-02-07T05:53:23.642Z,40.50
2018-02-07T05:54:23.628Z,37.50
2018-02-07T05:55:23.616Z,39.20
2018-02-07T05:56:23.597Z,40.80
2018-02-07T05:57:23.584Z,40.00
2018-02-07T05:58:23.571Z,41.50
2018-02-07T05:59:23.557Z,39.10
2018-02-07T06:00:23.542Z,40.20
2018-02-07T06:01:23.525Z,40.90
2018-02-07T06:02:23.512Z,41.20
2018-02-07T06:03:23.503Z,38.90
2018-02-07T06:04:23.484Z,39.00
2018-02-07T06:05:23.472Z,39.10
2018-02-07T06:06:23.461Z,41.10
2018-02-07T06:07:23.438Z,37.80
2018-02-07T06:08:23.425Z,39.50
2018-02-07T06:09:23.416Z,38.50
2018-02-07T06:10:23.405Z,37.90
2018-02-07T06:11:23.388Z,40.70
2018-02-07T06:12:23.377Z,39.80
2018-02-07T06:13:23.359Z,38.80
2018-02-07T06:14:23.343Z,38.40
2018-02-07T06:15:23.331Z,38.40
2018-02-07T06:16:23.319Z,37.00
2018-02-07T06:17:23.298Z,38.50
2018-02-07T06:18:23.289Z,38.40
2018-02-07T06:19:23.276Z,37.30
2018-02-07T06:20:23.262Z,38.30
2018-02-07T06:21:23.252Z,37.30
2018-02-07T06:22:23.235Z,37.90
2018-02-07T06:23:23.215Z,39.10
2018-02-07T06:24:23.302Z,41.70
2018-02-07T06:25:23.191Z,38.00
2018-02-07T06:26:23.177Z,39.10
2018-02-07T06:27:23.160Z,37.30
2018-02-07T06:28:23.152Z,39.10
2018-02-07T06:29:23.129Z,36.30
2018-02-07T06:30:23.115Z,41.00
2018-02-07T06:31:23.110Z,36.20
2018-02-07T06:32:23.092Z,38.30
2018-02-07T06:33:23.077Z,39.90
2018-02-07T06:34:23.060Z,38.00
2018-02-07T06:35:23.047Z,37.30
2018-02-07T06:36:23.040Z,38.80
2018-02-07T06:37:23.018Z,37.50
2018-02-07T06:38:23.020Z,35.50
2018-02-07T06:39:23.025Z,36.80
2018-02-07T06:40:22.972Z,40.50
2018-02-07T06:41:22.965Z,38.90
2018-02-07T06:42:22.961Z,41.00
2018-02-07T06:43:22.935Z,42.00
2018-02-07T06:44:22.922Z,39.20
2018-02-07T06:45:22.901Z,36.60
2018-02-07T06:46:22.890Z,37.50
2018-02-07T06:47:22.875Z,38.40
2018-02-07T06:48:22.861Z,38.10
2018-02-07T06:49:22.846Z,38.40
2018-02-07T06:50:22.828Z,38.70
2018-02-07T06:51:22.815Z,37.60
2018-02-07T06:52:22.805Z,37.50
2018-02-07T06:53:22.791Z,36.10
2018-02-07T06:54:22.780Z,36.60
2018-02-07T06:55:22.756Z,38.20
2018-02-07T06:56:22.742Z,36.10
2018-02-07T06:57:22.738Z,38.40
2018-02-07T06:58:22.721Z,39.20
2018-02-07T06:59:22.707Z,38.00
2018-02-07T07:00:22.703Z,36.90
2018-02-07T07:01:22.678Z,36.20
2018-02-07T07:02:22.662Z,37.00
2018-02-07T07:03:22.648Z,37.50
2018-02-07T07:04:22.639Z,37.60
2018-02-07T07:05:22.661Z,37.70
2018-02-07T07:06:22.625Z,35.20
2018-02-07T07:07:22.588Z,37.80
2018-02-07T07:08:22.574Z,36.90
2018-02-07T07:09:22.569Z,37.50
2018-02-07T07:10:22.553Z,38.20
2018-02-07T07:11:22.532Z,38.20
2018-02-07T07:12:22.517Z,36.30
2018-02-07T07:13:22.508Z,37.90
2018-02-07T07:14:22.495Z,37.60
2018-02-07T07:15:22.476Z,36.50
2018-02-07T07:16:22.463Z,37.90
2018-02-07T07:17:22.444Z,38.90
2018-02-07T07:18:22.431Z,38.70
2018-02-07T07:19:22.423Z,37.80
2018-02-07T07:20:22.410Z,36.40
2018-02-07T07:21:22.389Z,37.40
2018-02-07T07:22:22.377Z,36.50
2018-02-07T07:23:22.359Z,43.90
2018-02-07T07:24:22.344Z,42.00
2018-02-07T07:25:22.338Z,40.10
2018-02-07T07:26:22.425Z,39.30
2018-02-07T07:27:22.303Z,37.10
2018-02-07T07:28:22.287Z,37.20
2018-02-07T07:29:22.284Z,38.70
2018-02-07T07:30:22.265Z,40.00
2018-02-07T07:31:22.253Z,38.20
2018-02-07T07:32:22.243Z,39.80
2018-02-07T07:33:22.221Z,38.30
2018-02-07T07:34:22.205Z,37.50
2018-02-07T07:35:22.198Z,35.80
2018-02-07T07:36:22.184Z,35.90
2018-02-07T07:37:22.164Z,36.90
2018-02-07T07:38:22.151Z,41.30
2018-02-07T07:39:22.135Z,37.10
2018-02-07T07:40:22.124Z,37.00
2018-02-07T07:41:22.112Z,37.40
2018-02-07T07:42:22.098Z,37.20
2018-02-07T07:43:22.082Z,36.60
2018-02-07T07:44:22.065Z,35.90
2018-02-07T07:45:22.057Z,38.30
2018-02-07T07:46:22.041Z,36.90
2018-02-07T07:47:22.035Z,37.30
2018-02-07T07:48:22.011Z,39.20
2018-02-07T07:49:21.998Z,37.30
2018-02-07T07:50:21.982Z,38.90
2018-02-07T07:51:21.970Z,37.00
2018-02-07T07:52:21.955Z,36.30
2018-02-07T07:53:21.938Z,36.90
2018-02-07T07:54:24.081Z,36.10
2018-02-07T07:55:21.906Z,37.20
2018-02-07T07:56:21.892Z,38.60
2018-02-07T07:57:21.889Z,34.90
2018-02-07T07:58:21.936Z,34.00
2018-02-07T07:59:21.858Z,34.80
2018-02-07T08:00:21.841Z,36.10
2018-02-07T08:01:21.823Z,36.60
2018-02-07T08:02:21.810Z,37.30
2018-02-07T08:03:21.797Z,35.40
2018-02-07T08:04:21.784Z,32.70
2018-02-07T08:05:21.776Z,35.40
2018-02-07T08:06:21.811Z,36.20
2018-02-07T08:07:21.743Z,35.90
2018-02-07T08:08:21.724Z,36.00
2018-02-07T08:09:21.718Z,37.10
2018-02-07T08:10:21.710Z,37.00
2018-02-07T08:11:21.687Z,34.90
2018-02-07T08:12:21.674Z,35.70
2018-02-07T08:13:21.660Z,36.90
2018-02-07T08:14:21.644Z,34.10
2018-02-07T08:15:21.631Z,36.00
2018-02-07T08:16:21.618Z,37.10
2018-02-07T08:17:21.603Z,34.10
2018-02-07T08:18:21.587Z,36.90
2018-02-07T08:19:21.569Z,35.30
2018-02-07T08:20:21.554Z,35.00
2018-02-07T08:21:21.545Z,34.70
2018-02-07T08:22:21.537Z,34.00
2018-02-07T08:23:21.520Z,37.50
2018-02-07T08:24:21.502Z,34.60
2018-02-07T08:25:21.491Z,37.30
2018-02-07T08:26:21.476Z,34.50
2018-02-07T08:27:21.461Z,33.20
2018-02-07T08:28:21.446Z,33.70
2018-02-07T08:29:21.432Z,35.20
2018-02-07T08:30:21.415Z,34.40
2018-02-07T08:31:21.404Z,35.00
2018-02-07T08:32:21.391Z,34.70
2018-02-07T08:33:21.380Z,32.10
2018-02-07T08:34:21.358Z,36.90
2018-02-07T08:35:21.348Z,32.80
2018-02-07T08:36:21.632Z,35.80
2018-02-07T08:37:21.323Z,35.00
2018-02-07T08:38:21.311Z,35.90
2018-02-07T08:39:21.289Z,32.30
2018-02-07T08:40:21.278Z,36.00
2018-02-07T08:41:21.273Z,38.10
2018-02-07T08:42:21.260Z,36.40
2018-02-07T08:43:21.240Z,35.10
2018-02-07T08:44:21.230Z,34.30
2018-02-07T08:45:21.208Z,36.60
2018-02-07T08:46:21.197Z,36.20
2018-02-07T08:47:21.185Z,35.50
2018-02-07T08:48:21.490Z,38.50
2018-02-07T08:49:21.162Z,35.40
2018-02-07T08:50:21.143Z,36.40
2018-02-07T08:51:21.134Z,36.40
2018-02-07T08:52:21.108Z,36.90
2018-02-07T08:53:21.110Z,37.80
2018-02-07T08:54:21.090Z,35.10
2018-02-07T08:55:21.077Z,35.70
2018-02-07T08:56:21.082Z,39.00
2018-02-07T08:57:21.046Z,35.60
2018-02-07T08:58:21.037Z,35.10
2018-02-07T08:59:21.015Z,34.70
2018-02-07T09:00:21.007Z,35.20
2018-02-07T09:01:20.985Z,33.40
2018-02-07T09:02:20.973Z,35.70
2018-02-07T09:03:20.964Z,32.80
2018-02-07T09:04:20.951Z,35.40
2018-02-07T09:05:20.934Z,34.50
2018-02-07T09:06:20.920Z,32.90
2018-02-07T09:07:20.911Z,35.90
2018-02-07T09:08:20.890Z,34.80
2018-02-07T09:09:20.880Z,33.60
2018-02-07T09:10:20.868Z,35.10
2018-02-07T09:11:20.858Z,34.90
2018-02-07T09:12:20.839Z,33.90
2018-02-07T09:13:20.831Z,32.90
2018-02-07T09:14:20.817Z,32.70
2018-02-07T09:15:20.802Z,33.10
2018-02-07T09:16:20.786Z,32.30
2018-02-07T09:17:20.775Z,32.40
2018-02-07T09:18:20.759Z,31.80
2018-02-07T09:19:20.751Z,35.20
2018-02-07T09:20:20.735Z,34.20
2018-02-07T09:21:20.715Z,31.10
2018-02-07T09:22:20.706Z,33.40
2018-02-07T09:23:20.689Z,31.20
2018-02-07T09:24:20.677Z,31.80
2018-02-07T09:25:20.668Z,33.30
2018-02-07T09:26:20.655Z,32.50
2018-02-07T09:27:20.642Z,29.30
2018-02-07T09:28:20.623Z,33.00
2018-02-07T09:29:20.618Z,30.70
2018-02-07T09:30:20.603Z,31.10
2018-02-07T09:31:20.590Z,31.30
2018-02-07T09:32:20.576Z,30.90
2018-02-07T09:33:20.561Z,31.30
2018-02-07T09:34:20.550Z,31.80
2018-02-07T09:35:20.537Z,29.70
2018-02-07T09:36:20.526Z,32.20
2018-02-07T09:37:20.515Z,31.50
2018-02-07T09:38:20.497Z,29.90
2018-02-07T09:39:20.489Z,30.30
2018-02-07T09:40:20.469Z,30.50
2018-02-07T09:41:20.465Z,28.70
2018-02-07T09:42:20.451Z,30.90
2018-02-07T09:43:20.435Z,28.60
2018-02-07T09:44:20.423Z,31.60
2018-02-07T09:45:20.416Z,31.40
2018-02-07T09:46:20.405Z,33.40
2018-02-07T09:47:20.388Z,31.20
2018-02-07T09:48:20.378Z,30.00
2018-02-07T09:49:20.372Z,33.20
2018-02-07T09:50:20.357Z,29.80
2018-02-07T09:51:20.344Z,29.60
2018-02-07T09:52:20.337Z,28.90
2018-02-07T09:53:20.315Z,31.50
2018-02-07T09:54:20.305Z,32.00
2018-02-07T09:55:20.299Z,30.10
2018-02-07T09:56:20.285Z,32.00
2018-02-07T09:57:20.279Z,30.70
2018-02-07T09:58:20.266Z,29.70
2018-02-07T09:59:20.249Z,28.80
2018-02-07T10:00:20.236Z,29.30
2018-02-07T10:01:20.231Z,32.50
2018-02-07T10:02:20.215Z,32.80
2018-02-07T10:03:20.206Z,29.80
2018-02-07T10:04:20.194Z,30.60
2018-02-07T10:05:20.195Z,32.40
2018-02-07T10:06:20.169Z,28.90
2018-02-07T10:07:20.160Z,28.50
2018-02-07T10:08:20.147Z,29.40
2018-02-07T10:09:20.141Z,29.70
2018-02-07T10:10:20.127Z,29.50
2018-02-07T10:11:20.114Z,30.40
2018-02-07T10:12:20.106Z,31.60
2018-02-07T10:13:20.083Z,31.30
2018-02-07T10:14:20.073Z,30.50
2018-02-07T10:15:20.066Z,27.40
2018-02-07T10:16:20.057Z,30.90
2018-02-07T10:17:20.045Z,31.30
2018-02-07T10:18:20.027Z,29.60
2018-02-07T10:19:20.016Z,27.70
2018-02-07T10:20:20.006Z,29.70
2018-02-07T10:21:19.997Z,30.80
2018-02-07T10:22:19.987Z,32.20
2018-02-07T10:23:19.969Z,32.20
2018-02-07T10:24:19.953Z,31.60
2018-02-07T10:25:19.953Z,30.40
2018-02-07T10:26:19.938Z,30.00
2018-02-07T10:27:19.922Z,31.60
2018-02-07T10:28:19.911Z,28.30
2018-02-07T10:29:19.895Z,32.40
2018-02-07T10:30:19.885Z,28.20
2018-02-07T10:31:19.874Z,29.40
2018-02-07T10:32:19.861Z,30.20
2018-02-07T10:33:19.867Z,28.70
2018-02-07T10:34:19.835Z,29.30
2018-02-07T10:35:19.828Z,30.90
2018-02-07T10:36:19.913Z,29.80
2018-02-07T10:37:19.805Z,28.40
2018-02-07T10:38:19.795Z,29.00
2018-02-07T10:39:19.782Z,29.20
2018-02-07T10:40:19.769Z,28.40
2018-02-07T10:41:19.773Z,29.50
2018-02-07T10:42:19.747Z,28.50
2018-02-07T10:43:19.738Z,27.00
2018-02-07T10:44:19.725Z,30.60
2018-02-07T10:45:19.706Z,29.70
2018-02-07T10:46:19.695Z,29.10
2018-02-07T10:47:19.690Z,28.60
2018-02-07T10:48:19.677Z,30.80
2018-02-07T10:49:19.662Z,28.00
2018-02-07T10:50:19.649Z,28.50
2018-02-07T10:51:19.634Z,29.00
2018-02-07T10:52:19.623Z,29.80
2018-02-07T10:53:19.621Z,30.50
2018-02-07T10:54:19.757Z,30.00
2018-02-07T10:55:19.597Z,30.00
2018-02-07T10:56:19.576Z,29.60
2018-02-07T10:57:19.568Z,26.60
2018-02-07T10:58:19.556Z,30.10
2018-02-07T10:59:19.546Z,27.90
2018-02-07T11:00:19.834Z,29.40
2018-02-07T11:01:19.535Z,27.80
2018-02-07T11:02:19.506Z,28.20
2018-02-07T11:03:19.495Z,29.40
2018-02-07T11:04:19.488Z,27.00
2018-02-07T11:05:19.468Z,27.20
2018-02-07T11:06:19.460Z,29.40
2018-02-07T11:07:19.447Z,28.10
2018-02-07T11:08:19.434Z,28.70
2018-02-07T11:09:19.426Z,26.70
2018-02-07T11:10:19.419Z,29.80
2018-02-07T11:11:19.406Z,28.90
2018-02-07T11:12:19.385Z,28.40
2018-02-07T11:13:19.377Z,28.20
2018-02-07T11:14:19.374Z,27.30
2018-02-07T11:15:19.356Z,27.80
2018-02-07T11:16:19.345Z,27.90
2018-02-07T11:17:19.331Z,27.10
2018-02-07T11:18:19.323Z,27.80
2018-02-07T11:19:19.319Z,28.20
2018-02-07T11:20:19.319Z,27.10
2018-02-07T11:21:19.284Z,26.70
2018-02-07T11:22:19.273Z,28.50
2018-02-07T11:23:19.262Z,28.20
2018-02-07T11:24:19.256Z,28.00
2018-02-07T11:25:19.265Z,28.50
2018-02-07T11:26:19.233Z,26.60
2018-02-07T11:27:19.221Z,28.50
2018-02-07T11:28:19.210Z,27.00
2018-02-07T11:29:19.202Z,26.60
2018-02-07T11:30:19.239Z,28.40
2018-02-07T11:31:19.176Z,28.30
2018-02-07T11:32:19.168Z,26.90
2018-02-07T11:33:19.157Z,25.90
2018-02-07T11:34:19.142Z,29.50
2018-02-07T11:35:19.132Z,24.40
2018-02-07T11:36:19.424Z,27.90
2018-02-07T11:37:19.111Z,26.20
2018-02-07T11:38:19.099Z,24.00
2018-02-07T11:39:19.091Z,27.20
2018-02-07T11:40:19.078Z,28.50
2018-02-07T11:41:19.068Z,29.00
2018-02-07T11:42:19.365Z,27.00
2018-02-07T11:43:19.042Z,27.70
2018-02-07T11:44:19.037Z,26.80
2018-02-07T11:45:19.028Z,25.20
2018-02-07T11:46:19.014Z,25.40
2018-02-07T11:47:19.005Z,27.00
2018-02-07T11:48:19.300Z,26.60
2018-02-07T11:49:18.979Z,26.20
2018-02-07T11:50:18.970Z,25.70
2018-02-07T11:51:18.966Z,25.40
2018-02-07T11:52:18.951Z,27.60
2018-02-07T11:53:18.940Z,26.70
2018-02-07T11:54:18.930Z,28.50
2018-02-07T11:55:18.918Z,26.70
2018-02-07T11:56:18.909Z,25.30
2018-02-07T11:57:18.904Z,25.30
2018-02-07T11:58:18.895Z,27.00
2018-02-07T11:59:18.879Z,25.10
2018-02-07T12:00:18.871Z,24.10
2018-02-07T12:01:18.864Z,24.20
2018-02-07T12:02:18.859Z,26.80
2018-02-07T12:03:18.842Z,25.20
2018-02-07T12:04:18.833Z,25.30
2018-02-07T12:05:18.825Z,25.10
2018-02-07T12:06:18.814Z,24.60
2018-02-07T12:07:18.811Z,26.50
2018-02-07T12:08:18.799Z,28.20
2018-02-07T12:09:18.791Z,25.10
2018-02-07T12:10:18.778Z,26.20
2018-02-07T12:11:18.767Z,27.30
2018-02-07T12:12:18.757Z,26.20
2018-02-07T12:13:18.758Z,28.30
2018-02-07T12:14:18.755Z,24.60
2018-02-07T12:15:18.738Z,25.40
2018-02-07T12:16:18.771Z,25.80
2018-02-07T12:17:18.716Z,24.50
2018-02-07T12:18:18.709Z,25.20
2018-02-07T12:19:18.704Z,24.50
2018-02-07T12:20:18.702Z,24.60
2018-02-07T12:21:18.694Z,22.90
2018-02-07T12:22:18.688Z,23.00
2018-02-07T12:23:18.674Z,23.90
2018-02-07T12:24:18.970Z,23.00
2018-02-07T12:25:18.669Z,24.40
2018-02-07T12:26:18.656Z,22.10
2018-02-07T12:27:18.652Z,24.30
2018-02-07T12:28:18.648Z,23.10
2018-02-07T12:29:18.639Z,24.30
2018-02-07T12:30:18.632Z,24.30
2018-02-07T12:31:18.628Z,26.70
2018-02-07T12:32:18.656Z,23.20
2018-02-07T12:33:18.679Z,24.30
2018-02-07T12:34:18.614Z,23.30
2018-02-07T12:35:18.602Z,22.80
2018-02-07T12:36:18.651Z,22.60
2018-02-07T12:37:18.599Z,22.30
2018-02-07T12:38:18.600Z,25.10
2018-02-07T12:39:18.610Z,24.10
2018-02-07T12:40:18.585Z,22.50
2018-02-07T12:41:18.590Z,23.90
2018-02-07T12:42:18.583Z,23.70
2018-02-07T12:43:18.578Z,24.20
2018-02-07T12:44:18.577Z,23.90
2018-02-07T12:45:18.569Z,23.10
2018-02-07T12:46:18.567Z,24.80
2018-02-07T12:47:18.569Z,24.90
2018-02-07T13:03:44.946Z,23.20
2018-02-07T13:04:44.650Z,23.90
2018-02-07T13:05:44.644Z,23.30
2018-02-07T13:06:44.640Z,22.00
2018-02-07T13:07:44.645Z,22.60